sensor_id;sensor_type;location;lat;lon;timestamp;P1;durP1;ratioP1;P2;durP2;ratioP2
2748;SDS011;1382;52.142;11.618;2023-04-24T00:02:14;4.10;;;3.70;;
2748;SDS011;1382;52.142;11.618;2023-04-24T00:04:43;3.50;;;2.90;;
2748;SDS011;1382;52.142;11.618;2023-04-24T00:07:10;4.43;;;3.97;;
2748;SDS011;1382;52.142;11.618;2023-04-24T00:09:36;6.50;;;4.23;;
2748;SDS011;1382;52.142;11.618;2023-04-24T00:12:03;5.57;;;3.90;;
2748;SDS011;1382;52.142;11.618;2023-04-24T00:14:30;3.93;;;3.63;;
2748;SDS011;1382;52.142;11.618;2023-04-24T00:16:57;3.80;;;3.50;;
2748;SDS011;1382;52.142;11.618;2023-04-24T00:19:24;3.20;;;2.90;;
2748;SDS011;1382;52.142;11.618;2023-04-24T00:21:52;3.77;;;3.47;;
2748;SDS011;1382;52.142;11.618;2023-04-24T00:24:19;4.20;;;3.53;;
2748;SDS011;1382;52.142;11.618;2023-04-24T00:26:46;4.00;;;2.83;;
2748;SDS011;1382;52.142;11.618;2023-04-24T00:29:13;4.00;;;2.80;;
2748;SDS011;1382;52.142;11.618;2023-04-24T00:31:40;4.97;;;3.03;;
2748;SDS011;1382;52.142;11.618;2023-04-24T00:34:07;6.00;;;3.13;;
2748;SDS011;1382;52.142;11.618;2023-04-24T00:36:34;3.40;;;3.00;;
2748;SDS011;1382;52.142;11.618;2023-04-24T00:39:02;3.47;;;2.20;;
2748;SDS011;1382;52.142;11.618;2023-04-24T00:41:29;2.40;;;2.20;;
2748;SDS011;1382;52.142;11.618;2023-04-24T00:43:56;2.73;;;2.10;;
2748;SDS011;1382;52.142;11.618;2023-04-24T00:46:22;2.40;;;2.20;;
2748;SDS011;1382;52.142;11.618;2023-04-24T00:48:49;6.03;;;1.90;;
2748;SDS011;1382;52.142;11.618;2023-04-24T00:51:16;3.67;;;1.77;;
2748;SDS011;1382;52.142;11.618;2023-04-24T00:53:43;1.70;;;1.50;;
2748;SDS011;1382;52.142;11.618;2023-04-24T00:56:12;1.10;;;1.00;;
2748;SDS011;1382;52.142;11.618;2023-04-24T00:58:39;1.13;;;1.00;;
2748;SDS011;1382;52.142;11.618;2023-04-24T01:01:06;1.43;;;1.30;;
2748;SDS011;1382;52.142;11.618;2023-04-24T01:03:33;1.37;;;0.97;;
2748;SDS011;1382;52.142;11.618;2023-04-24T01:06:02;1.80;;;0.83;;
2748;SDS011;1382;52.142;11.618;2023-04-24T01:08:30;1.77;;;1.50;;
2748;SDS011;1382;52.142;11.618;2023-04-24T01:10:57;3.43;;;1.40;;
2748;SDS011;1382;52.142;11.618;2023-04-24T01:13:25;7.33;;;1.23;;
2748;SDS011;1382;52.142;11.618;2023-04-24T01:15:53;1.10;;;1.00;;
2748;SDS011;1382;52.142;11.618;2023-04-24T01:18:19;2.00;;;1.47;;
2748;SDS011;1382;52.142;11.618;2023-04-24T01:20:46;1.83;;;1.63;;
2748;SDS011;1382;52.142;11.618;2023-04-24T01:23:18;2.00;;;1.10;;
2748;SDS011;1382;52.142;11.618;2023-04-24T01:25:45;2.40;;;1.10;;
2748;SDS011;1382;52.142;11.618;2023-04-24T01:28:12;1.23;;;0.93;;
2748;SDS011;1382;52.142;11.618;2023-04-24T01:30:39;1.17;;;1.07;;
2748;SDS011;1382;52.142;11.618;2023-04-24T01:33:05;1.93;;;1.20;;
2748;SDS011;1382;52.142;11.618;2023-04-24T01:35:33;5.50;;;1.50;;
2748;SDS011;1382;52.142;11.618;2023-04-24T01:37:59;4.93;;;1.80;;
2748;SDS011;1382;52.142;11.618;2023-04-24T01:40:27;1.50;;;1.40;;
2748;SDS011;1382;52.142;11.618;2023-04-24T01:42:54;1.30;;;1.17;;
2748;SDS011;1382;52.142;11.618;2023-04-24T01:45:21;1.53;;;1.43;;
2748;SDS011;1382;52.142;11.618;2023-04-24T01:47:48;2.17;;;0.90;;
2748;SDS011;1382;52.142;11.618;2023-04-24T01:50:16;2.43;;;1.50;;
2748;SDS011;1382;52.142;11.618;2023-04-24T01:52:43;2.97;;;1.50;;
2748;SDS011;1382;52.142;11.618;2023-04-24T01:55:10;1.80;;;1.53;;
2748;SDS011;1382;52.142;11.618;2023-04-24T01:57:38;1.70;;;1.60;;
2748;SDS011;1382;52.142;11.618;2023-04-24T02:00:06;4.20;;;1.70;;
2748;SDS011;1382;52.142;11.618;2023-04-24T02:02:33;1.47;;;1.30;;
2748;SDS011;1382;52.142;11.618;2023-04-24T02:05:00;1.83;;;1.17;;
2748;SDS011;1382;52.142;11.618;2023-04-24T02:07:27;1.70;;;1.20;;
2748;SDS011;1382;52.142;11.618;2023-04-24T02:09:54;1.40;;;1.30;;
2748;SDS011;1382;52.142;11.618;2023-04-24T02:12:20;1.73;;;1.30;;
2748;SDS011;1382;52.142;11.618;2023-04-24T02:14:48;2.67;;;1.67;;
2748;SDS011;1382;52.142;11.618;2023-04-24T02:17:15;1.57;;;1.20;;
2748;SDS011;1382;52.142;11.618;2023-04-24T02:19:42;1.60;;;1.30;;
2748;SDS011;1382;52.142;11.618;2023-04-24T02:22:09;1.03;;;0.93;;
2748;SDS011;1382;52.142;11.618;2023-04-24T02:24:36;1.33;;;1.20;;
2748;SDS011;1382;52.142;11.618;2023-04-24T02:27:03;1.50;;;1.30;;
2748;SDS011;1382;52.142;11.618;2023-04-24T02:29:29;2.93;;;1.30;;
2748;SDS011;1382;52.142;11.618;2023-04-24T02:31:57;3.53;;;1.37;;
2748;SDS011;1382;52.142;11.618;2023-04-24T02:34:24;1.67;;;1.50;;
2748;SDS011;1382;52.142;11.618;2023-04-24T02:36:51;1.40;;;1.30;;
2748;SDS011;1382;52.142;11.618;2023-04-24T02:39:18;1.27;;;1.10;;
2748;SDS011;1382;52.142;11.618;2023-04-24T02:41:44;2.80;;;1.40;;
2748;SDS011;1382;52.142;11.618;2023-04-24T02:44:11;1.70;;;1.43;;
2748;SDS011;1382;52.142;11.618;2023-04-24T02:46:38;2.10;;;1.00;;
2748;SDS011;1382;52.142;11.618;2023-04-24T02:49:06;1.70;;;0.97;;
2748;SDS011;1382;52.142;11.618;2023-04-24T02:51:33;2.70;;;1.40;;
2748;SDS011;1382;52.142;11.618;2023-04-24T02:54:00;1.00;;;1.00;;
2748;SDS011;1382;52.142;11.618;2023-04-24T02:56:26;2.40;;;1.40;;
2748;SDS011;1382;52.142;11.618;2023-04-24T02:58:53;2.50;;;0.90;;
2748;SDS011;1382;52.142;11.618;2023-04-24T03:01:20;1.13;;;1.03;;
2748;SDS011;1382;52.142;11.618;2023-04-24T03:03:46;1.70;;;1.13;;
2748;SDS011;1382;52.142;11.618;2023-04-24T03:06:15;1.50;;;1.10;;
2748;SDS011;1382;52.142;11.618;2023-04-24T03:08:42;2.33;;;1.90;;
2748;SDS011;1382;52.142;11.618;2023-04-24T03:11:08;1.23;;;1.13;;
2748;SDS011;1382;52.142;11.618;2023-04-24T03:13:35;1.37;;;1.27;;
2748;SDS011;1382;52.142;11.618;2023-04-24T03:16:02;1.30;;;1.20;;
2748;SDS011;1382;52.142;11.618;2023-04-24T03:18:29;1.50;;;1.10;;
2748;SDS011;1382;52.142;11.618;2023-04-24T03:20:55;3.27;;;1.53;;
2748;SDS011;1382;52.142;11.618;2023-04-24T03:23:23;2.50;;;1.13;;
2748;SDS011;1382;52.142;11.618;2023-04-24T03:25:50;2.20;;;1.20;;
2748;SDS011;1382;52.142;11.618;2023-04-24T03:28:17;2.20;;;1.60;;
2748;SDS011;1382;52.142;11.618;2023-04-24T03:30:44;2.23;;;1.60;;
2748;SDS011;1382;52.142;11.618;2023-04-24T03:33:10;2.30;;;1.63;;
2748;SDS011;1382;52.142;11.618;2023-04-24T03:35:37;2.10;;;1.47;;
2748;SDS011;1382;52.142;11.618;2023-04-24T03:38:04;2.43;;;1.70;;
2748;SDS011;1382;52.142;11.618;2023-04-24T03:40:32;1.33;;;1.20;;
2748;SDS011;1382;52.142;11.618;2023-04-24T03:42:59;3.67;;;1.37;;
2748;SDS011;1382;52.142;11.618;2023-04-24T03:45:25;3.03;;;1.40;;
2748;SDS011;1382;52.142;11.618;2023-04-24T03:47:52;1.93;;;1.33;;
2748;SDS011;1382;52.142;11.618;2023-04-24T03:50:19;1.23;;;1.00;;
2748;SDS011;1382;52.142;11.618;2023-04-24T03:52:46;1.53;;;0.97;;
2748;SDS011;1382;52.142;11.618;2023-04-24T03:55:12;2.40;;;1.10;;
2748;SDS011;1382;52.142;11.618;2023-04-24T03:57:40;2.13;;;1.10;;
2748;SDS011;1382;52.142;11.618;2023-04-24T04:00:08;1.10;;;1.00;;
2748;SDS011;1382;52.142;11.618;2023-04-24T04:02:35;2.00;;;1.00;;
2748;SDS011;1382;52.142;11.618;2023-04-24T04:05:02;1.50;;;1.20;;
2748;SDS011;1382;52.142;11.618;2023-04-24T04:07:29;1.50;;;1.10;;
2748;SDS011;1382;52.142;11.618;2023-04-24T04:09:56;4.40;;;1.07;;
2748;SDS011;1382;52.142;11.618;2023-04-24T04:12:23;1.43;;;1.10;;
2748;SDS011;1382;52.142;11.618;2023-04-24T04:14:51;1.90;;;1.53;;
2748;SDS011;1382;52.142;11.618;2023-04-24T04:17:17;3.73;;;1.40;;
2748;SDS011;1382;52.142;11.618;2023-04-24T04:19:44;1.20;;;1.10;;
2748;SDS011;1382;52.142;11.618;2023-04-24T04:22:11;1.20;;;1.10;;
2748;SDS011;1382;52.142;11.618;2023-04-24T04:24:37;2.07;;;1.40;;
2748;SDS011;1382;52.142;11.618;2023-04-24T04:27:04;1.47;;;1.37;;
2748;SDS011;1382;52.142;11.618;2023-04-24T04:29:31;3.33;;;1.00;;
2748;SDS011;1382;52.142;11.618;2023-04-24T04:31:59;2.33;;;1.33;;
2748;SDS011;1382;52.142;11.618;2023-04-24T04:34:26;1.33;;;1.23;;
2748;SDS011;1382;52.142;11.618;2023-04-24T04:36:52;1.53;;;1.07;;
2748;SDS011;1382;52.142;11.618;2023-04-24T04:39:19;3.30;;;1.37;;
2748;SDS011;1382;52.142;11.618;2023-04-24T04:41:46;1.53;;;1.07;;
2748;SDS011;1382;52.142;11.618;2023-04-24T04:44:12;2.00;;;1.33;;
2748;SDS011;1382;52.142;11.618;2023-04-24T04:46:39;1.57;;;1.07;;
2748;SDS011;1382;52.142;11.618;2023-04-24T04:49:07;1.17;;;1.07;;
2748;SDS011;1382;52.142;11.618;2023-04-24T04:51:34;1.63;;;1.20;;
2748;SDS011;1382;52.142;11.618;2023-04-24T04:54:00;2.30;;;1.30;;
2748;SDS011;1382;52.142;11.618;2023-04-24T04:56:27;1.30;;;1.20;;
2748;SDS011;1382;52.142;11.618;2023-04-24T04:58:54;4.30;;;1.50;;
2748;SDS011;1382;52.142;11.618;2023-04-24T05:01:21;3.33;;;1.20;;
2748;SDS011;1382;52.142;11.618;2023-04-24T05:03:47;3.03;;;1.60;;
2748;SDS011;1382;52.142;11.618;2023-04-24T05:06:16;2.63;;;1.20;;
2748;SDS011;1382;52.142;11.618;2023-04-24T05:08:43;1.40;;;1.10;;
2748;SDS011;1382;52.142;11.618;2023-04-24T05:11:09;3.27;;;1.30;;
2748;SDS011;1382;52.142;11.618;2023-04-24T05:13:36;2.80;;;1.30;;
2748;SDS011;1382;52.142;11.618;2023-04-24T05:16:06;2.20;;;1.37;;
2748;SDS011;1382;52.142;11.618;2023-04-24T05:18:33;2.57;;;0.90;;
2748;SDS011;1382;52.142;11.618;2023-04-24T05:21:00;1.87;;;1.37;;
2748;SDS011;1382;52.142;11.618;2023-04-24T05:23:28;5.30;;;1.30;;
2748;SDS011;1382;52.142;11.618;2023-04-24T05:25:55;3.10;;;1.10;;
2748;SDS011;1382;52.142;11.618;2023-04-24T05:28:22;1.50;;;1.17;;
2748;SDS011;1382;52.142;11.618;2023-04-24T05:30:49;1.80;;;1.00;;
2748;SDS011;1382;52.142;11.618;2023-04-24T05:33:15;2.20;;;1.13;;
2748;SDS011;1382;52.142;11.618;2023-04-24T05:35:42;1.90;;;1.00;;
2748;SDS011;1382;52.142;11.618;2023-04-24T05:38:08;3.73;;;1.10;;
2748;SDS011;1382;52.142;11.618;2023-04-24T05:40:36;1.10;;;1.00;;
2748;SDS011;1382;52.142;11.618;2023-04-24T05:43:03;1.90;;;1.10;;
2748;SDS011;1382;52.142;11.618;2023-04-24T05:45:30;1.10;;;1.00;;
2748;SDS011;1382;52.142;11.618;2023-04-24T05:47:57;1.47;;;1.10;;
2748;SDS011;1382;52.142;11.618;2023-04-24T05:50:23;1.20;;;0.90;;
2748;SDS011;1382;52.142;11.618;2023-04-24T05:52:50;2.33;;;1.13;;
2748;SDS011;1382;52.142;11.618;2023-04-24T05:55:17;3.33;;;1.50;;
2748;SDS011;1382;52.142;11.618;2023-04-24T05:57:45;1.93;;;1.67;;
2748;SDS011;1382;52.142;11.618;2023-04-24T06:00:12;2.80;;;1.70;;
2748;SDS011;1382;52.142;11.618;2023-04-24T06:02:39;5.70;;;1.87;;
2748;SDS011;1382;52.142;11.618;2023-04-24T06:05:07;3.07;;;1.80;;
2748;SDS011;1382;52.142;11.618;2023-04-24T06:07:34;2.67;;;2.43;;
2748;SDS011;1382;52.142;11.618;2023-04-24T06:10:01;2.17;;;1.97;;
2748;SDS011;1382;52.142;11.618;2023-04-24T06:12:28;2.50;;;2.17;;
2748;SDS011;1382;52.142;11.618;2023-04-24T06:14:56;3.77;;;2.80;;
2748;SDS011;1382;52.142;11.618;2023-04-24T06:17:23;2.53;;;2.17;;
2748;SDS011;1382;52.142;11.618;2023-04-24T06:19:49;5.07;;;2.47;;
2748;SDS011;1382;52.142;11.618;2023-04-24T06:22:16;2.33;;;2.13;;
2748;SDS011;1382;52.142;11.618;2023-04-24T06:24:43;2.20;;;1.93;;
2748;SDS011;1382;52.142;11.618;2023-04-24T06:27:10;3.03;;;1.20;;
2748;SDS011;1382;52.142;11.618;2023-04-24T06:29:37;1.93;;;1.67;;
2748;SDS011;1382;52.142;11.618;2023-04-24T06:32:05;1.30;;;1.10;;
2748;SDS011;1382;52.142;11.618;2023-04-24T06:34:32;3.10;;;1.70;;
2748;SDS011;1382;52.142;11.618;2023-04-24T06:36:59;2.50;;;1.97;;
2748;SDS011;1382;52.142;11.618;2023-04-24T06:39:26;3.23;;;1.30;;
2748;SDS011;1382;52.142;11.618;2023-04-24T06:41:53;5.27;;;1.57;;
2748;SDS011;1382;52.142;11.618;2023-04-24T06:44:20;2.40;;;1.70;;
2748;SDS011;1382;52.142;11.618;2023-04-24T06:46:46;1.93;;;1.60;;
2748;SDS011;1382;52.142;11.618;2023-04-24T06:49:14;2.20;;;1.30;;
2748;SDS011;1382;52.142;11.618;2023-04-24T06:51:41;2.00;;;1.73;;
2748;SDS011;1382;52.142;11.618;2023-04-24T06:54:08;2.67;;;1.53;;
2748;SDS011;1382;52.142;11.618;2023-04-24T06:56:35;4.03;;;2.30;;
2748;SDS011;1382;52.142;11.618;2023-04-24T06:59:01;3.63;;;1.83;;
2748;SDS011;1382;52.142;11.618;2023-04-24T07:01:28;1.63;;;1.50;;
2748;SDS011;1382;52.142;11.618;2023-04-24T07:03:55;3.80;;;1.07;;
2748;SDS011;1382;52.142;11.618;2023-04-24T07:06:23;1.73;;;1.40;;
2748;SDS011;1382;52.142;11.618;2023-04-24T07:08:50;5.73;;;1.50;;
2748;SDS011;1382;52.142;11.618;2023-04-24T07:11:17;1.50;;;1.10;;
2748;SDS011;1382;52.142;11.618;2023-04-24T07:13:44;2.33;;;1.23;;
2748;SDS011;1382;52.142;11.618;2023-04-24T07:16:10;1.47;;;1.37;;
2748;SDS011;1382;52.142;11.618;2023-04-24T07:18:37;2.10;;;1.10;;
2748;SDS011;1382;52.142;11.618;2023-04-24T07:21:04;2.03;;;0.97;;
2748;SDS011;1382;52.142;11.618;2023-04-24T07:23:32;2.07;;;1.10;;
2748;SDS011;1382;52.142;11.618;2023-04-24T07:25:59;2.10;;;1.30;;
2748;SDS011;1382;52.142;11.618;2023-04-24T07:28:26;1.20;;;0.83;;
2748;SDS011;1382;52.142;11.618;2023-04-24T07:30:53;2.77;;;1.17;;
2748;SDS011;1382;52.142;11.618;2023-04-24T07:33:19;1.97;;;1.10;;
2748;SDS011;1382;52.142;11.618;2023-04-24T07:35:46;0.93;;;0.80;;
2748;SDS011;1382;52.142;11.618;2023-04-24T07:38:13;2.33;;;1.10;;
2748;SDS011;1382;52.142;11.618;2023-04-24T07:40:41;2.40;;;1.00;;
2748;SDS011;1382;52.142;11.618;2023-04-24T07:43:08;1.70;;;1.13;;
2748;SDS011;1382;52.142;11.618;2023-04-24T07:45:35;1.60;;;1.30;;
2748;SDS011;1382;52.142;11.618;2023-04-24T07:48:01;1.57;;;1.00;;
2748;SDS011;1382;52.142;11.618;2023-04-24T07:50:29;2.57;;;1.87;;
2748;SDS011;1382;52.142;11.618;2023-04-24T07:52:55;2.10;;;0.97;;
2748;SDS011;1382;52.142;11.618;2023-04-24T07:55:22;2.33;;;1.00;;
2748;SDS011;1382;52.142;11.618;2023-04-24T07:57:54;2.00;;;1.17;;
2748;SDS011;1382;52.142;11.618;2023-04-24T08:00:21;3.40;;;1.43;;
2748;SDS011;1382;52.142;11.618;2023-04-24T08:02:48;2.70;;;0.90;;
2748;SDS011;1382;52.142;11.618;2023-04-24T08:05:15;1.63;;;1.20;;
2748;SDS011;1382;52.142;11.618;2023-04-24T08:07:42;2.90;;;1.10;;
2748;SDS011;1382;52.142;11.618;2023-04-24T08:10:09;1.60;;;1.10;;
2748;SDS011;1382;52.142;11.618;2023-04-24T08:12:36;1.30;;;1.00;;
2748;SDS011;1382;52.142;11.618;2023-04-24T08:15:05;1.63;;;0.73;;
2748;SDS011;1382;52.142;11.618;2023-04-24T08:17:33;1.57;;;0.93;;
2748;SDS011;1382;52.142;11.618;2023-04-24T08:20:00;4.73;;;1.13;;
2748;SDS011;1382;52.142;11.618;2023-04-24T08:22:28;1.20;;;0.90;;
2748;SDS011;1382;52.142;11.618;2023-04-24T08:24:54;1.13;;;0.80;;
2748;SDS011;1382;52.142;11.618;2023-04-24T08:27:21;1.40;;;1.13;;
2748;SDS011;1382;52.142;11.618;2023-04-24T08:29:48;2.33;;;1.00;;
2748;SDS011;1382;52.142;11.618;2023-04-24T08:32:17;3.10;;;0.63;;
2748;SDS011;1382;52.142;11.618;2023-04-24T08:34:43;1.53;;;0.90;;
2748;SDS011;1382;52.142;11.618;2023-04-24T08:37:11;2.90;;;1.07;;
2748;SDS011;1382;52.142;11.618;2023-04-24T08:39:38;2.23;;;1.20;;
2748;SDS011;1382;52.142;11.618;2023-04-24T08:42:05;2.77;;;0.80;;
2748;SDS011;1382;52.142;11.618;2023-04-24T08:44:32;1.83;;;0.80;;
2748;SDS011;1382;52.142;11.618;2023-04-24T08:46:59;1.00;;;0.90;;
2748;SDS011;1382;52.142;11.618;2023-04-24T08:49:29;1.73;;;1.20;;
2748;SDS011;1382;52.142;11.618;2023-04-24T08:51:56;2.03;;;0.93;;
2748;SDS011;1382;52.142;11.618;2023-04-24T08:54:23;5.30;;;1.23;;
2748;SDS011;1382;52.142;11.618;2023-04-24T08:56:50;1.50;;;0.73;;
2748;SDS011;1382;52.142;11.618;2023-04-24T08:59:24;1.20;;;0.90;;
2748;SDS011;1382;52.142;11.618;2023-04-24T09:01:51;1.73;;;0.80;;
2748;SDS011;1382;52.142;11.618;2023-04-24T09:04:18;3.40;;;1.10;;
2748;SDS011;1382;52.142;11.618;2023-04-24T09:06:48;0.87;;;0.70;;
2748;SDS011;1382;52.142;11.618;2023-04-24T09:09:15;1.20;;;0.93;;
2748;SDS011;1382;52.142;11.618;2023-04-24T09:11:43;1.90;;;1.10;;
2748;SDS011;1382;52.142;11.618;2023-04-24T09:14:10;4.23;;;0.93;;
2748;SDS011;1382;52.142;11.618;2023-04-24T09:16:37;1.43;;;1.10;;
2748;SDS011;1382;52.142;11.618;2023-04-24T09:19:04;1.00;;;0.90;;
2748;SDS011;1382;52.142;11.618;2023-04-24T09:21:31;3.83;;;1.20;;
2748;SDS011;1382;52.142;11.618;2023-04-24T09:24:00;3.10;;;1.10;;
2748;SDS011;1382;52.142;11.618;2023-04-24T09:26:29;0.80;;;0.60;;
2748;SDS011;1382;52.142;11.618;2023-04-24T09:28:56;0.70;;;0.50;;
2748;SDS011;1382;52.142;11.618;2023-04-24T09:31:23;1.03;;;0.80;;
2748;SDS011;1382;52.142;11.618;2023-04-24T09:33:53;2.60;;;1.20;;
2748;SDS011;1382;52.142;11.618;2023-04-24T09:36:26;0.73;;;0.73;;
2748;SDS011;1382;52.142;11.618;2023-04-24T09:38:55;3.67;;;1.37;;
2748;SDS011;1382;52.142;11.618;2023-04-24T09:41:25;2.10;;;1.00;;
2748;SDS011;1382;52.142;11.618;2023-04-24T09:43:53;9.80;;;1.40;;
2748;SDS011;1382;52.142;11.618;2023-04-24T09:46:20;4.80;;;1.60;;
2748;SDS011;1382;52.142;11.618;2023-04-24T09:48:47;3.80;;;1.70;;
2748;SDS011;1382;52.142;11.618;2023-04-24T09:51:13;6.30;;;2.07;;
2748;SDS011;1382;52.142;11.618;2023-04-24T09:53:44;3.83;;;1.50;;
2748;SDS011;1382;52.142;11.618;2023-04-24T09:56:12;2.60;;;1.47;;
2748;SDS011;1382;52.142;11.618;2023-04-24T09:58:40;5.27;;;1.97;;
2748;SDS011;1382;52.142;11.618;2023-04-24T10:01:06;6.50;;;1.67;;
2748;SDS011;1382;52.142;11.618;2023-04-24T10:03:33;2.70;;;1.53;;
2748;SDS011;1382;52.142;11.618;2023-04-24T10:06:01;1.90;;;1.70;;
2748;SDS011;1382;52.142;11.618;2023-04-24T10:08:33;1.90;;;1.80;;
2748;SDS011;1382;52.142;11.618;2023-04-24T10:11:00;2.50;;;2.30;;
2748;SDS011;1382;52.142;11.618;2023-04-24T10:13:27;2.30;;;2.10;;
2748;SDS011;1382;52.142;11.618;2023-04-24T10:15:56;3.00;;;1.50;;
2748;SDS011;1382;52.142;11.618;2023-04-24T10:18:24;2.43;;;1.77;;
2748;SDS011;1382;52.142;11.618;2023-04-24T10:20:52;2.83;;;2.17;;
2748;SDS011;1382;52.142;11.618;2023-04-24T10:23:20;3.50;;;1.77;;
2748;SDS011;1382;52.142;11.618;2023-04-24T10:25:47;1.87;;;1.77;;
2748;SDS011;1382;52.142;11.618;2023-04-24T10:28:19;1.60;;;1.50;;
2748;SDS011;1382;52.142;11.618;2023-04-24T10:30:47;1.57;;;1.37;;
2748;SDS011;1382;52.142;11.618;2023-04-24T10:33:21;3.00;;;1.40;;
2748;SDS011;1382;52.142;11.618;2023-04-24T10:35:49;3.30;;;1.67;;
2748;SDS011;1382;52.142;11.618;2023-04-24T10:38:18;2.20;;;1.87;;
2748;SDS011;1382;52.142;11.618;2023-04-24T10:40:49;3.17;;;1.77;;
2748;SDS011;1382;52.142;11.618;2023-04-24T10:43:16;2.90;;;1.63;;
2748;SDS011;1382;52.142;11.618;2023-04-24T10:48:33;4.10;;;1.40;;
2748;SDS011;1382;52.142;11.618;2023-04-24T10:51:00;2.70;;;2.20;;
2748;SDS011;1382;52.142;11.618;2023-04-24T10:53:28;2.03;;;1.80;;
2748;SDS011;1382;52.142;11.618;2023-04-24T10:55:58;2.27;;;1.50;;
2748;SDS011;1382;52.142;11.618;2023-04-24T10:58:35;6.53;;;2.10;;
2748;SDS011;1382;52.142;11.618;2023-04-24T11:01:03;2.30;;;1.67;;
2748;SDS011;1382;52.142;11.618;2023-04-24T11:03:30;2.53;;;1.43;;
2748;SDS011;1382;52.142;11.618;2023-04-24T11:06:01;1.30;;;1.20;;
2748;SDS011;1382;52.142;11.618;2023-04-24T11:08:30;1.10;;;1.03;;
2748;SDS011;1382;52.142;11.618;2023-04-24T11:11:00;1.77;;;1.27;;
2748;SDS011;1382;52.142;11.618;2023-04-24T11:16:38;2.07;;;1.47;;
2748;SDS011;1382;52.142;11.618;2023-04-24T11:19:09;2.03;;;1.47;;
2748;SDS011;1382;52.142;11.618;2023-04-24T11:21:47;1.93;;;1.27;;
2748;SDS011;1382;52.142;11.618;2023-04-24T11:24:27;1.90;;;1.10;;
2748;SDS011;1382;52.142;11.618;2023-04-24T11:26:55;1.40;;;1.30;;
2748;SDS011;1382;52.142;11.618;2023-04-24T11:29:24;3.87;;;1.37;;
2748;SDS011;1382;52.142;11.618;2023-04-24T11:32:13;1.60;;;1.20;;
2748;SDS011;1382;52.142;11.618;2023-04-24T11:34:41;2.50;;;1.20;;
2748;SDS011;1382;52.142;11.618;2023-04-24T11:37:13;2.97;;;1.43;;
2748;SDS011;1382;52.142;11.618;2023-04-24T11:39:40;2.00;;;1.57;;
2748;SDS011;1382;52.142;11.618;2023-04-24T11:42:07;1.50;;;1.40;;
2748;SDS011;1382;52.142;11.618;2023-04-24T11:44:35;4.67;;;1.57;;
2748;SDS011;1382;52.142;11.618;2023-04-24T11:47:02;1.63;;;1.53;;
2748;SDS011;1382;52.142;11.618;2023-04-24T11:49:29;3.73;;;1.57;;
2748;SDS011;1382;52.142;11.618;2023-04-24T11:51:55;2.23;;;1.70;;
2748;SDS011;1382;52.142;11.618;2023-04-24T11:54:27;1.63;;;1.53;;
2748;SDS011;1382;52.142;11.618;2023-04-24T11:56:55;3.37;;;1.97;;
2748;SDS011;1382;52.142;11.618;2023-04-24T11:59:22;2.70;;;2.50;;
2748;SDS011;1382;52.142;11.618;2023-04-24T12:01:49;1.63;;;1.53;;
2748;SDS011;1382;52.142;11.618;2023-04-24T12:04:16;2.53;;;2.30;;
2748;SDS011;1382;52.142;11.618;2023-04-24T12:09:27;3.50;;;2.83;;
2748;SDS011;1382;52.142;11.618;2023-04-24T12:11:54;4.23;;;2.47;;
2748;SDS011;1382;52.142;11.618;2023-04-24T12:14:22;5.23;;;2.17;;
2748;SDS011;1382;52.142;11.618;2023-04-24T12:16:49;2.73;;;2.10;;
2748;SDS011;1382;52.142;11.618;2023-04-24T12:19:17;2.33;;;1.90;;
2748;SDS011;1382;52.142;11.618;2023-04-24T12:21:45;4.07;;;2.07;;
2748;SDS011;1382;52.142;11.618;2023-04-24T12:24:25;2.30;;;2.10;;
2748;SDS011;1382;52.142;11.618;2023-04-24T12:26:53;2.80;;;1.80;;
2748;SDS011;1382;52.142;11.618;2023-04-24T12:29:20;2.53;;;2.27;;
2748;SDS011;1382;52.142;11.618;2023-04-24T12:31:47;1.90;;;1.67;;
2748;SDS011;1382;52.142;11.618;2023-04-24T12:34:17;3.87;;;2.70;;
2748;SDS011;1382;52.142;11.618;2023-04-24T12:36:44;2.53;;;1.73;;
2748;SDS011;1382;52.142;11.618;2023-04-24T12:39:14;1.67;;;1.30;;
2748;SDS011;1382;52.142;11.618;2023-04-24T12:41:49;4.50;;;1.80;;
2748;SDS011;1382;52.142;11.618;2023-04-24T12:44:28;1.27;;;1.17;;
2748;SDS011;1382;52.142;11.618;2023-04-24T12:46:55;2.07;;;1.80;;
2748;SDS011;1382;52.142;11.618;2023-04-24T12:49:21;2.53;;;1.60;;
2748;SDS011;1382;52.142;11.618;2023-04-24T12:51:48;1.60;;;1.50;;
2748;SDS011;1382;52.142;11.618;2023-04-24T12:54:15;3.70;;;1.30;;
2748;SDS011;1382;52.142;11.618;2023-04-24T12:56:41;1.57;;;1.33;;
2748;SDS011;1382;52.142;11.618;2023-04-24T12:59:08;2.53;;;1.10;;
2748;SDS011;1382;52.142;11.618;2023-04-24T13:01:36;3.20;;;1.13;;
2748;SDS011;1382;52.142;11.618;2023-04-24T13:04:03;1.50;;;1.40;;
2748;SDS011;1382;52.142;11.618;2023-04-24T13:06:30;2.47;;;1.70;;
2748;SDS011;1382;52.142;11.618;2023-04-24T13:08:57;1.60;;;1.50;;
2748;SDS011;1382;52.142;11.618;2023-04-24T13:11:24;2.07;;;1.87;;
2748;SDS011;1382;52.142;11.618;2023-04-24T13:13:51;1.67;;;1.40;;
2748;SDS011;1382;52.142;11.618;2023-04-24T13:16:20;1.53;;;1.43;;
2748;SDS011;1382;52.142;11.618;2023-04-24T13:18:48;2.13;;;1.70;;
2748;SDS011;1382;52.142;11.618;2023-04-24T13:21:15;2.40;;;1.60;;
2748;SDS011;1382;52.142;11.618;2023-04-24T13:23:42;1.67;;;1.57;;
2748;SDS011;1382;52.142;11.618;2023-04-24T13:26:09;2.00;;;1.80;;
2748;SDS011;1382;52.142;11.618;2023-04-24T13:28:36;1.97;;;1.43;;
2748;SDS011;1382;52.142;11.618;2023-04-24T13:31:02;2.10;;;1.50;;
2748;SDS011;1382;52.142;11.618;2023-04-24T13:33:29;3.67;;;1.53;;
2748;SDS011;1382;52.142;11.618;2023-04-24T13:35:57;2.40;;;1.50;;
2748;SDS011;1382;52.142;11.618;2023-04-24T13:38:24;1.57;;;1.47;;
2748;SDS011;1382;52.142;11.618;2023-04-24T13:40:50;2.00;;;1.30;;
2748;SDS011;1382;52.142;11.618;2023-04-24T13:43:17;1.73;;;1.53;;
2748;SDS011;1382;52.142;11.618;2023-04-24T13:45:44;1.60;;;1.47;;
2748;SDS011;1382;52.142;11.618;2023-04-24T13:48:11;1.50;;;1.40;;
2748;SDS011;1382;52.142;11.618;2023-04-24T13:50:38;1.63;;;1.30;;
2748;SDS011;1382;52.142;11.618;2023-04-24T13:53:06;1.50;;;1.40;;
2748;SDS011;1382;52.142;11.618;2023-04-24T13:55:32;1.53;;;1.43;;
2748;SDS011;1382;52.142;11.618;2023-04-24T13:57:59;2.40;;;1.30;;
2748;SDS011;1382;52.142;11.618;2023-04-24T14:00:26;1.53;;;1.43;;
2748;SDS011;1382;52.142;11.618;2023-04-24T14:02:53;3.50;;;1.50;;
2748;SDS011;1382;52.142;11.618;2023-04-24T14:05:20;1.77;;;1.30;;
2748;SDS011;1382;52.142;11.618;2023-04-24T14:07:47;3.63;;;1.23;;
2748;SDS011;1382;52.142;11.618;2023-04-24T14:10:15;3.47;;;1.70;;
2748;SDS011;1382;52.142;11.618;2023-04-24T14:12:42;1.83;;;1.17;;
2748;SDS011;1382;52.142;11.618;2023-04-24T14:15:09;2.20;;;1.20;;
2748;SDS011;1382;52.142;11.618;2023-04-24T14:17:36;1.40;;;1.30;;
2748;SDS011;1382;52.142;11.618;2023-04-24T14:20:03;5.67;;;1.67;;
2748;SDS011;1382;52.142;11.618;2023-04-24T14:22:31;1.43;;;0.80;;
2748;SDS011;1382;52.142;11.618;2023-04-24T14:24:57;2.70;;;1.07;;
2748;SDS011;1382;52.142;11.618;2023-04-24T14:27:25;1.93;;;0.80;;
2748;SDS011;1382;52.142;11.618;2023-04-24T14:29:52;0.83;;;0.80;;
2748;SDS011;1382;52.142;11.618;2023-04-24T14:32:19;2.43;;;0.83;;
2748;SDS011;1382;52.142;11.618;2023-04-24T14:34:45;1.17;;;0.83;;
2748;SDS011;1382;52.142;11.618;2023-04-24T14:37:12;1.70;;;1.03;;
2748;SDS011;1382;52.142;11.618;2023-04-24T14:39:39;0.90;;;0.90;;
2748;SDS011;1382;52.142;11.618;2023-04-24T14:42:05;2.63;;;0.80;;
2748;SDS011;1382;52.142;11.618;2023-04-24T14:44:33;2.53;;;0.73;;
2748;SDS011;1382;52.142;11.618;2023-04-24T14:47:00;3.33;;;0.50;;
2748;SDS011;1382;52.142;11.618;2023-04-24T14:49:27;1.03;;;0.70;;
2748;SDS011;1382;52.142;11.618;2023-04-24T14:51:54;1.60;;;0.53;;
2748;SDS011;1382;52.142;11.618;2023-04-24T14:54:20;2.47;;;0.60;;
2748;SDS011;1382;52.142;11.618;2023-04-24T14:56:47;3.60;;;0.80;;
2748;SDS011;1382;52.142;11.618;2023-04-24T14:59:14;0.60;;;0.60;;
2748;SDS011;1382;52.142;11.618;2023-04-24T15:01:42;1.20;;;1.10;;
2748;SDS011;1382;52.142;11.618;2023-04-24T15:04:09;1.77;;;1.23;;
2748;SDS011;1382;52.142;11.618;2023-04-24T15:06:36;1.13;;;0.70;;
2748;SDS011;1382;52.142;11.618;2023-04-24T15:09:03;2.60;;;0.90;;
2748;SDS011;1382;52.142;11.618;2023-04-24T15:11:29;1.40;;;0.70;;